sensor_id;sensor_type;location;lat;lon;timestamp;P1;durP1;ratioP1;P2;durP2;ratioP2
21168;SDS011;10742;51.816;8.662;2023-07-02T00:02:01;1999.90;;;999.90;;
21168;SDS011;10742;51.816;8.662;2023-07-02T00:05:04;1999.90;;;999.90;;
21168;SDS011;10742;51.816;8.662;2023-07-02T00:08:07;1999.90;;;999.90;;
21168;SDS011;10742;51.816;8.662;2023-07-02T00:11:09;1999.90;;;999.90;;
21168;SDS011;10742;51.816;8.662;2023-07-02T00:14:14;1999.90;;;999.90;;
21168;SDS011;10742;51.816;8.662;2023-07-02T00:17:16;1999.90;;;999.90;;
21168;SDS011;10742;51.816;8.662;2023-07-02T00:20:19;1999.90;;;999.90;;
21168;SDS011;10742;51.816;8.662;2023-07-02T00:23:21;1999.90;;;999.90;;
21168;SDS011;10742;51.816;8.662;2023-07-02T00:26:24;1999.90;;;999.90;;
21168;SDS011;10742;51.816;8.662;2023-07-02T00:29:28;1999.90;;;999.90;;
21168;SDS011;10742;51.816;8.662;2023-07-02T00:32:30;1999.90;;;999.90;;
21168;SDS011;10742;51.816;8.662;2023-07-02T00:35:32;1999.90;;;999.90;;
21168;SDS011;10742;51.816;8.662;2023-07-02T00:38:35;1999.90;;;999.90;;
21168;SDS011;10742;51.816;8.662;2023-07-02T00:41:37;1999.90;;;999.90;;
21168;SDS011;10742;51.816;8.662;2023-07-02T00:44:40;1999.90;;;999.90;;
21168;SDS011;10742;51.816;8.662;2023-07-02T00:47:43;1999.90;;;999.90;;
21168;SDS011;10742;51.816;8.662;2023-07-02T00:50:46;1999.90;;;999.90;;
21168;SDS011;10742;51.816;8.662;2023-07-02T00:53:49;1999.90;;;999.90;;
21168;SDS011;10742;51.816;8.662;2023-07-02T00:56:53;1999.90;;;999.90;;
21168;SDS011;10742;51.816;8.662;2023-07-02T00:59:57;1999.90;;;999.90;;
21168;SDS011;10742;51.816;8.662;2023-07-02T01:03:02;1999.90;;;999.90;;
21168;SDS011;10742;51.816;8.662;2023-07-02T01:06:05;1999.90;;;999.90;;
21168;SDS011;10742;51.816;8.662;2023-07-02T01:09:07;1999.90;;;999.90;;
21168;SDS011;10742;51.816;8.662;2023-07-02T01:12:09;1999.90;;;999.90;;
21168;SDS011;10742;51.816;8.662;2023-07-02T01:15:14;1999.90;;;999.90;;
21168;SDS011;10742;51.816;8.662;2023-07-02T01:18:16;1999.90;;;999.90;;
21168;SDS011;10742;51.816;8.662;2023-07-02T01:21:19;1999.90;;;999.90;;
21168;SDS011;10742;51.816;8.662;2023-07-02T01:24:22;1999.90;;;999.90;;
21168;SDS011;10742;51.816;8.662;2023-07-02T01:27:27;1999.90;;;999.90;;
21168;SDS011;10742;51.816;8.662;2023-07-02T01:30:30;1999.90;;;999.90;;
21168;SDS011;10742;51.816;8.662;2023-07-02T01:33:33;1999.90;;;999.90;;
21168;SDS011;10742;51.816;8.662;2023-07-02T01:36:35;1999.90;;;999.90;;
21168;SDS011;10742;51.816;8.662;2023-07-02T01:39:38;1999.90;;;999.90;;
21168;SDS011;10742;51.816;8.662;2023-07-02T01:42:40;1999.90;;;999.90;;
21168;SDS011;10742;51.816;8.662;2023-07-02T01:45:43;1999.90;;;999.90;;
21168;SDS011;10742;51.816;8.662;2023-07-02T01:48:45;1999.90;;;999.90;;
21168;SDS011;10742;51.816;8.662;2023-07-02T01:51:51;1999.90;;;999.90;;
21168;SDS011;10742;51.816;8.662;2023-07-02T01:54:54;1999.90;;;999.90;;
21168;SDS011;10742;51.816;8.662;2023-07-02T01:57:56;1999.90;;;999.90;;
21168;SDS011;10742;51.816;8.662;2023-07-02T02:00:58;1999.90;;;999.90;;
21168;SDS011;10742;51.816;8.662;2023-07-02T02:04:01;1999.90;;;999.90;;
21168;SDS011;10742;51.816;8.662;2023-07-02T02:07:03;1999.90;;;999.90;;
21168;SDS011;10742;51.816;8.662;2023-07-02T02:10:07;1999.90;;;999.90;;
21168;SDS011;10742;51.816;8.662;2023-07-02T02:13:10;1999.90;;;999.90;;
21168;SDS011;10742;51.816;8.662;2023-07-02T02:16:13;1999.90;;;999.90;;
21168;SDS011;10742;51.816;8.662;2023-07-02T02:19:15;1999.90;;;999.90;;
21168;SDS011;10742;51.816;8.662;2023-07-02T02:22:18;1999.90;;;999.90;;
21168;SDS011;10742;51.816;8.662;2023-07-02T02:25:20;1999.90;;;999.90;;
21168;SDS011;10742;51.816;8.662;2023-07-02T02:28:22;1999.90;;;999.90;;
21168;SDS011;10742;51.816;8.662;2023-07-02T02:31:25;1999.90;;;999.90;;
21168;SDS011;10742;51.816;8.662;2023-07-02T02:34:27;1999.90;;;999.90;;
21168;SDS011;10742;51.816;8.662;2023-07-02T02:37:33;1999.90;;;999.90;;
21168;SDS011;10742;51.816;8.662;2023-07-02T02:40:37;1999.90;;;999.90;;
21168;SDS011;10742;51.816;8.662;2023-07-02T02:43:42;1999.90;;;999.90;;
21168;SDS011;10742;51.816;8.662;2023-07-02T02:46:47;1999.90;;;999.90;;
21168;SDS011;10742;51.816;8.662;2023-07-02T02:49:49;1999.90;;;999.90;;
21168;SDS011;10742;51.816;8.662;2023-07-02T02:52:52;1999.90;;;999.90;;
21168;SDS011;10742;51.816;8.662;2023-07-02T02:55:54;1999.90;;;999.90;;
21168;SDS011;10742;51.816;8.662;2023-07-02T02:58:57;1999.90;;;999.90;;
21168;SDS011;10742;51.816;8.662;2023-07-02T03:01:59;1999.90;;;999.90;;
21168;SDS011;10742;51.816;8.662;2023-07-02T03:05:02;1999.90;;;999.90;;
21168;SDS011;10742;51.816;8.662;2023-07-02T03:08:05;1999.90;;;999.90;;
21168;SDS011;10742;51.816;8.662;2023-07-02T03:11:07;1999.90;;;999.90;;
21168;SDS011;10742;51.816;8.662;2023-07-02T03:14:09;1999.90;;;999.90;;
21168;SDS011;10742;51.816;8.662;2023-07-02T03:17:12;1999.90;;;999.90;;
21168;SDS011;10742;51.816;8.662;2023-07-02T03:20:15;1999.90;;;999.90;;
21168;SDS011;10742;51.816;8.662;2023-07-02T03:23:18;1999.90;;;999.90;;
21168;SDS011;10742;51.816;8.662;2023-07-02T03:26:20;1999.90;;;999.90;;
21168;SDS011;10742;51.816;8.662;2023-07-02T03:29:24;1999.90;;;999.90;;
21168;SDS011;10742;51.816;8.662;2023-07-02T03:32:26;1999.90;;;999.90;;
21168;SDS011;10742;51.816;8.662;2023-07-02T03:35:29;1999.90;;;999.90;;
21168;SDS011;10742;51.816;8.662;2023-07-02T03:38:31;1999.90;;;999.90;;
21168;SDS011;10742;51.816;8.662;2023-07-02T03:41:33;1999.90;;;999.90;;
21168;SDS011;10742;51.816;8.662;2023-07-02T03:44:36;1999.90;;;999.90;;
21168;SDS011;10742;51.816;8.662;2023-07-02T03:47:38;1999.90;;;999.90;;
21168;SDS011;10742;51.816;8.662;2023-07-02T03:50:40;1999.90;;;999.90;;
21168;SDS011;10742;51.816;8.662;2023-07-02T03:53:42;1999.90;;;999.90;;
21168;SDS011;10742;51.816;8.662;2023-07-02T03:56:45;1999.90;;;999.90;;
21168;SDS011;10742;51.816;8.662;2023-07-02T03:59:47;1999.90;;;999.90;;
21168;SDS011;10742;51.816;8.662;2023-07-02T04:02:49;1999.90;;;999.90;;
21168;SDS011;10742;51.816;8.662;2023-07-02T04:05:52;1999.90;;;999.90;;
21168;SDS011;10742;51.816;8.662;2023-07-02T04:08:54;1999.90;;;999.90;;
21168;SDS011;10742;51.816;8.662;2023-07-02T04:11:56;1999.90;;;999.90;;
21168;SDS011;10742;51.816;8.662;2023-07-02T04:14:59;1999.90;;;999.90;;
21168;SDS011;10742;51.816;8.662;2023-07-02T04:18:01;1999.90;;;999.90;;
21168;SDS011;10742;51.816;8.662;2023-07-02T04:21:03;1999.90;;;999.90;;
21168;SDS011;10742;51.816;8.662;2023-07-02T04:24:05;1999.90;;;999.90;;
21168;SDS011;10742;51.816;8.662;2023-07-02T04:27:08;1999.90;;;999.90;;
21168;SDS011;10742;51.816;8.662;2023-07-02T04:30:10;1999.90;;;999.90;;
21168;SDS011;10742;51.816;8.662;2023-07-02T04:33:13;1999.90;;;999.90;;
21168;SDS011;10742;51.816;8.662;2023-07-02T04:36:16;1999.90;;;999.90;;
21168;SDS011;10742;51.816;8.662;2023-07-02T04:39:18;1999.90;;;999.90;;
21168;SDS011;10742;51.816;8.662;2023-07-02T04:42:39;1999.90;;;999.90;;
21168;SDS011;10742;51.816;8.662;2023-07-02T04:46:01;1999.90;;;999.90;;
21168;SDS011;10742;51.816;8.662;2023-07-02T04:49:23;1999.90;;;999.90;;
21168;SDS011;10742;51.816;8.662;2023-07-02T04:52:44;1999.90;;;999.90;;
21168;SDS011;10742;51.816;8.662;2023-07-02T04:55:47;1999.90;;;999.90;;
21168;SDS011;10742;51.816;8.662;2023-07-02T04:58:49;1999.90;;;999.90;;
21168;SDS011;10742;51.816;8.662;2023-07-02T05:01:51;1999.90;;;999.90;;
21168;SDS011;10742;51.816;8.662;2023-07-02T05:04:53;1999.90;;;999.90;;
21168;SDS011;10742;51.816;8.662;2023-07-02T05:07:56;1999.90;;;999.90;;
21168;SDS011;10742;51.816;8.662;2023-07-02T05:10:58;1999.90;;;999.90;;
21168;SDS011;10742;51.816;8.662;2023-07-02T05:14:00;1999.90;;;867.53;;
21168;SDS011;10742;51.816;8.662;2023-07-02T05:17:03;1999.90;;;843.07;;
21168;SDS011;10742;51.816;8.662;2023-07-02T05:20:05;1999.90;;;958.47;;
21168;SDS011;10742;51.816;8.662;2023-07-02T05:23:08;1999.90;;;999.90;;
21168;SDS011;10742;51.816;8.662;2023-07-02T05:26:11;1999.90;;;999.90;;
21168;SDS011;10742;51.816;8.662;2023-07-02T05:29:13;1999.90;;;999.90;;
21168;SDS011;10742;51.816;8.662;2023-07-02T05:32:16;1999.90;;;999.90;;
21168;SDS011;10742;51.816;8.662;2023-07-02T05:35:18;1999.90;;;999.90;;
21168;SDS011;10742;51.816;8.662;2023-07-02T05:38:21;1999.90;;;999.90;;
21168;SDS011;10742;51.816;8.662;2023-07-02T05:41:23;1999.90;;;999.90;;
21168;SDS011;10742;51.816;8.662;2023-07-02T05:44:26;1999.90;;;999.90;;
21168;SDS011;10742;51.816;8.662;2023-07-02T05:47:29;1999.90;;;999.90;;
21168;SDS011;10742;51.816;8.662;2023-07-02T05:50:31;1999.90;;;999.90;;
21168;SDS011;10742;51.816;8.662;2023-07-02T05:53:34;1999.90;;;999.90;;
21168;SDS011;10742;51.816;8.662;2023-07-02T05:56:36;1999.90;;;999.90;;
21168;SDS011;10742;51.816;8.662;2023-07-02T05:59:38;1999.90;;;988.97;;
21168;SDS011;10742;51.816;8.662;2023-07-02T06:02:41;1999.90;;;733.10;;
21168;SDS011;10742;51.816;8.662;2023-07-02T06:05:43;1999.90;;;697.27;;
21168;SDS011;10742;51.816;8.662;2023-07-02T06:08:45;1999.90;;;608.27;;
21168;SDS011;10742;51.816;8.662;2023-07-02T06:11:48;1722.20;;;428.03;;
21168;SDS011;10742;51.816;8.662;2023-07-02T06:14:50;1874.90;;;476.43;;
21168;SDS011;10742;51.816;8.662;2023-07-02T06:17:52;1999.90;;;580.03;;
21168;SDS011;10742;51.816;8.662;2023-07-02T06:20:55;1799.47;;;442.17;;
21168;SDS011;10742;51.816;8.662;2023-07-02T06:23:57;789.77;;;251.70;;
21168;SDS011;10742;51.816;8.662;2023-07-02T06:27:00;344.83;;;140.00;;
21168;SDS011;10742;51.816;8.662;2023-07-02T06:30:03;70.87;;;47.57;;
21168;SDS011;10742;51.816;8.662;2023-07-02T06:33:06;76.43;;;44.30;;
21168;SDS011;10742;51.816;8.662;2023-07-02T06:36:08;71.33;;;49.83;;
21168;SDS011;10742;51.816;8.662;2023-07-02T06:39:12;53.80;;;35.67;;
21168;SDS011;10742;51.816;8.662;2023-07-02T06:42:14;31.07;;;14.47;;
21168;SDS011;10742;51.816;8.662;2023-07-02T06:45:18;24.30;;;13.40;;
21168;SDS011;10742;51.816;8.662;2023-07-02T06:48:20;22.45;;;9.93;;
21168;SDS011;10742;51.816;8.662;2023-07-02T06:51:23;22.02;;;9.15;;
21168;SDS011;10742;51.816;8.662;2023-07-02T06:54:27;21.80;;;10.40;;
21168;SDS011;10742;51.816;8.662;2023-07-02T06:57:30;19.80;;;9.50;;
21168;SDS011;10742;51.816;8.662;2023-07-02T07:00:32;27.52;;;8.98;;
21168;SDS011;10742;51.816;8.662;2023-07-02T07:03:37;23.15;;;7.60;;
21168;SDS011;10742;51.816;8.662;2023-07-02T07:06:39;18.83;;;7.30;;
21168;SDS011;10742;51.816;8.662;2023-07-02T07:09:42;23.83;;;7.70;;
21168;SDS011;10742;51.816;8.662;2023-07-02T07:12:44;23.33;;;7.70;;
21168;SDS011;10742;51.816;8.662;2023-07-02T07:15:46;23.23;;;7.93;;
21168;SDS011;10742;51.816;8.662;2023-07-02T07:18:48;19.67;;;6.30;;
21168;SDS011;10742;51.816;8.662;2023-07-02T07:21:51;21.60;;;6.60;;
21168;SDS011;10742;51.816;8.662;2023-07-02T07:24:53;22.27;;;5.97;;
21168;SDS011;10742;51.816;8.662;2023-07-02T07:27:55;21.35;;;5.93;;
21168;SDS011;10742;51.816;8.662;2023-07-02T07:30:58;19.58;;;5.90;;
21168;SDS011;10742;51.816;8.662;2023-07-02T07:34:00;18.45;;;5.93;;
21168;SDS011;10742;51.816;8.662;2023-07-02T07:37:03;22.08;;;6.50;;
21168;SDS011;10742;51.816;8.662;2023-07-02T07:40:05;20.17;;;6.00;;
21168;SDS011;10742;51.816;8.662;2023-07-02T07:43:08;19.83;;;6.32;;
21168;SDS011;10742;51.816;8.662;2023-07-02T07:46:11;21.65;;;6.88;;
21168;SDS011;10742;51.816;8.662;2023-07-02T07:49:32;20.00;;;6.30;;
21168;SDS011;10742;51.816;8.662;2023-07-02T07:52:53;18.45;;;6.03;;
21168;SDS011;10742;51.816;8.662;2023-07-02T07:56:14;18.65;;;6.50;;
21168;SDS011;10742;51.816;8.662;2023-07-02T07:59:16;21.55;;;6.00;;
21168;SDS011;10742;51.816;8.662;2023-07-02T08:02:19;19.33;;;6.70;;
21168;SDS011;10742;51.816;8.662;2023-07-02T08:05:21;19.77;;;6.50;;
21168;SDS011;10742;51.816;8.662;2023-07-02T08:08:24;18.13;;;6.63;;
21168;SDS011;10742;51.816;8.662;2023-07-02T08:11:27;21.77;;;7.10;;
21168;SDS011;10742;51.816;8.662;2023-07-02T08:14:29;24.30;;;7.05;;
21168;SDS011;10742;51.816;8.662;2023-07-02T08:17:31;21.35;;;6.78;;
21168;SDS011;10742;51.816;8.662;2023-07-02T08:20:34;22.27;;;7.22;;
21168;SDS011;10742;51.816;8.662;2023-07-02T08:23:36;19.98;;;6.55;;
21168;SDS011;10742;51.816;8.662;2023-07-02T08:26:39;25.08;;;8.07;;
21168;SDS011;10742;51.816;8.662;2023-07-02T08:29:41;25.02;;;8.45;;
21168;SDS011;10742;51.816;8.662;2023-07-02T08:32:43;24.58;;;8.63;;
21168;SDS011;10742;51.816;8.662;2023-07-02T08:35:47;24.23;;;8.68;;
21168;SDS011;10742;51.816;8.662;2023-07-02T08:38:49;22.35;;;8.18;;
21168;SDS011;10742;51.816;8.662;2023-07-02T08:41:51;21.30;;;7.85;;
21168;SDS011;10742;51.816;8.662;2023-07-02T08:44:54;20.10;;;7.30;;
21168;SDS011;10742;51.816;8.662;2023-07-02T08:47:57;18.80;;;6.85;;
21168;SDS011;10742;51.816;8.662;2023-07-02T08:51:00;23.80;;;7.35;;
21168;SDS011;10742;51.816;8.662;2023-07-02T08:54:03;22.08;;;7.22;;
21168;SDS011;10742;51.816;8.662;2023-07-02T08:57:06;25.30;;;7.05;;
21168;SDS011;10742;51.816;8.662;2023-07-02T09:00:10;18.58;;;7.00;;
21168;SDS011;10742;51.816;8.662;2023-07-02T09:03:13;20.23;;;6.80;;
21168;SDS011;10742;51.816;8.662;2023-07-02T09:06:22;22.15;;;7.20;;
21168;SDS011;10742;51.816;8.662;2023-07-02T09:09:25;20.83;;;7.15;;
21168;SDS011;10742;51.816;8.662;2023-07-02T09:15:37;24.35;;;7.15;;
21168;SDS011;10742;51.816;8.662;2023-07-02T09:18:40;20.40;;;6.88;;
21168;SDS011;10742;51.816;8.662;2023-07-02T09:21:44;21.63;;;6.78;;
21168;SDS011;10742;51.816;8.662;2023-07-02T09:24:54;19.30;;;6.10;;
21168;SDS011;10742;51.816;8.662;2023-07-02T09:27:59;19.63;;;6.47;;
21168;SDS011;10742;51.816;8.662;2023-07-02T09:31:01;18.13;;;6.38;;
21168;SDS011;10742;51.816;8.662;2023-07-02T09:34:04;21.65;;;6.57;;
21168;SDS011;10742;51.816;8.662;2023-07-02T09:37:07;23.52;;;6.68;;
21168;SDS011;10742;51.816;8.662;2023-07-02T09:40:09;19.60;;;6.32;;
21168;SDS011;10742;51.816;8.662;2023-07-02T09:43:13;22.45;;;6.65;;
21168;SDS011;10742;51.816;8.662;2023-07-02T09:46:19;22.17;;;7.30;;
21168;SDS011;10742;51.816;8.662;2023-07-02T09:49:21;19.35;;;6.40;;
21168;SDS011;10742;51.816;8.662;2023-07-02T09:52:25;18.95;;;6.28;;
21168;SDS011;10742;51.816;8.662;2023-07-02T09:55:29;19.42;;;6.78;;
21168;SDS011;10742;51.816;8.662;2023-07-02T09:58:31;18.38;;;6.07;;
21168;SDS011;10742;51.816;8.662;2023-07-02T10:01:34;21.13;;;6.35;;
21168;SDS011;10742;51.816;8.662;2023-07-02T10:04:40;18.02;;;6.45;;
21168;SDS011;10742;51.816;8.662;2023-07-02T10:07:44;21.00;;;6.90;;
21168;SDS011;10742;51.816;8.662;2023-07-02T10:10:46;20.05;;;6.57;;
21168;SDS011;10742;51.816;8.662;2023-07-02T10:13:57;19.27;;;6.50;;
21168;SDS011;10742;51.816;8.662;2023-07-02T10:17:02;19.00;;;6.20;;
21168;SDS011;10742;51.816;8.662;2023-07-02T10:20:05;19.73;;;6.22;;
21168;SDS011;10742;51.816;8.662;2023-07-02T10:23:09;20.25;;;6.35;;
21168;SDS011;10742;51.816;8.662;2023-07-02T10:26:18;18.85;;;6.05;;
21168;SDS011;10742;51.816;8.662;2023-07-02T10:29:24;19.63;;;6.30;;
21168;SDS011;10742;51.816;8.662;2023-07-02T10:32:28;19.48;;;6.30;;
21168;SDS011;10742;51.816;8.662;2023-07-02T10:35:32;21.85;;;6.53;;
21168;SDS011;10742;51.816;8.662;2023-07-02T10:38:36;17.75;;;6.57;;
21168;SDS011;10742;51.816;8.662;2023-07-02T10:41:38;16.52;;;6.28;;
21168;SDS011;10742;51.816;8.662;2023-07-02T10:44:59;18.23;;;6.43;;
21168;SDS011;10742;51.816;8.662;2023-07-02T10:48:20;20.20;;;6.22;;
21168;SDS011;10742;51.816;8.662;2023-07-02T10:51:42;19.90;;;6.05;;
21168;SDS011;10742;51.816;8.662;2023-07-02T10:55:03;19.17;;;6.38;;
21168;SDS011;10742;51.816;8.662;2023-07-02T10:58:07;17.70;;;5.95;;
21168;SDS011;10742;51.816;8.662;2023-07-02T11:01:10;19.67;;;6.13;;
21168;SDS011;10742;51.816;8.662;2023-07-02T11:04:13;18.90;;;6.00;;
21168;SDS011;10742;51.816;8.662;2023-07-02T11:07:17;21.27;;;6.15;;
21168;SDS011;10742;51.816;8.662;2023-07-02T11:10:24;18.70;;;6.38;;
21168;SDS011;10742;51.816;8.662;2023-07-02T11:13:27;18.13;;;5.88;;
21168;SDS011;10742;51.816;8.662;2023-07-02T11:16:29;16.77;;;5.60;;
21168;SDS011;10742;51.816;8.662;2023-07-02T11:19:35;19.75;;;6.80;;
21168;SDS011;10742;51.816;8.662;2023-07-02T11:22:38;15.73;;;5.60;;
21168;SDS011;10742;51.816;8.662;2023-07-02T11:25:40;15.20;;;5.40;;
21168;SDS011;10742;51.816;8.662;2023-07-02T11:28:49;15.45;;;5.55;;
21168;SDS011;10742;51.816;8.662;2023-07-02T11:31:52;16.58;;;5.65;;
21168;SDS011;10742;51.816;8.662;2023-07-02T11:34:55;19.40;;;5.75;;
21168;SDS011;10742;51.816;8.662;2023-07-02T11:37:58;17.88;;;5.00;;
21168;SDS011;10742;51.816;8.662;2023-07-02T11:41:00;17.15;;;5.70;;
21168;SDS011;10742;51.816;8.662;2023-07-02T11:44:05;16.05;;;5.50;;
21168;SDS011;10742;51.816;8.662;2023-07-02T11:47:08;17.55;;;5.07;;
21168;SDS011;10742;51.816;8.662;2023-07-02T11:50:11;19.05;;;6.57;;
21168;SDS011;10742;51.816;8.662;2023-07-02T11:53:17;17.65;;;5.38;;
21168;SDS011;10742;51.816;8.662;2023-07-02T11:56:19;13.40;;;5.05;;
21168;SDS011;10742;51.816;8.662;2023-07-02T11:59:21;14.35;;;5.07;;
21168;SDS011;10742;51.816;8.662;2023-07-02T12:02:24;13.23;;;5.18;;
21168;SDS011;10742;51.816;8.662;2023-07-02T12:05:26;18.52;;;5.65;;
21168;SDS011;10742;51.816;8.662;2023-07-02T12:08:28;16.92;;;5.90;;
21168;SDS011;10742;51.816;8.662;2023-07-02T12:11:31;17.65;;;5.53;;
21168;SDS011;10742;51.816;8.662;2023-07-02T12:14:33;16.05;;;5.18;;
21168;SDS011;10742;51.816;8.662;2023-07-02T12:17:35;13.73;;;5.47;;
21168;SDS011;10742;51.816;8.662;2023-07-02T12:20:39;16.17;;;5.32;;
21168;SDS011;10742;51.816;8.662;2023-07-02T12:23:41;17.25;;;5.63;;
21168;SDS011;10742;51.816;8.662;2023-07-02T12:26:44;15.20;;;5.55;;
21168;SDS011;10742;51.816;8.662;2023-07-02T12:29:46;15.93;;;5.68;;
21168;SDS011;10742;51.816;8.662;2023-07-02T12:32:50;17.10;;;5.78;;
21168;SDS011;10742;51.816;8.662;2023-07-02T12:35:52;14.95;;;5.30;;
21168;SDS011;10742;51.816;8.662;2023-07-02T12:38:56;16.60;;;6.10;;
21168;SDS011;10742;51.816;8.662;2023-07-02T12:41:58;19.83;;;6.28;;
21168;SDS011;10742;51.816;8.662;2023-07-02T12:45:00;19.85;;;5.60;;
21168;SDS011;10742;51.816;8.662;2023-07-02T12:48:02;14.82;;;5.63;;
21168;SDS011;10742;51.816;8.662;2023-07-02T12:51:05;16.48;;;5.45;;
21168;SDS011;10742;51.816;8.662;2023-07-02T12:54:07;14.40;;;5.25;;
21168;SDS011;10742;51.816;8.662;2023-07-02T12:57:09;15.82;;;5.90;;
21168;SDS011;10742;51.816;8.662;2023-07-02T13:00:12;15.00;;;5.53;;
21168;SDS011;10742;51.816;8.662;2023-07-02T13:03:16;14.00;;;5.30;;
21168;SDS011;10742;51.816;8.662;2023-07-02T13:06:21;15.95;;;5.72;;
21168;SDS011;10742;51.816;8.662;2023-07-02T13:09:24;15.27;;;5.45;;
21168;SDS011;10742;51.816;8.662;2023-07-02T13:12:28;15.40;;;5.53;;
21168;SDS011;10742;51.816;8.662;2023-07-02T13:15:31;19.65;;;5.75;;
21168;SDS011;10742;51.816;8.662;2023-07-02T13:18:33;16.25;;;5.45;;
21168;SDS011;10742;51.816;8.662;2023-07-02T13:21:36;16.33;;;5.57;;
21168;SDS011;10742;51.816;8.662;2023-07-02T13:24:38;15.05;;;5.25;;
21168;SDS011;10742;51.816;8.662;2023-07-02T13:27:42;14.45;;;5.25;;
21168;SDS011;10742;51.816;8.662;2023-07-02T13:30:44;16.75;;;5.20;;
21168;SDS011;10742;51.816;8.662;2023-07-02T13:33:47;13.15;;;4.95;;
21168;SDS011;10742;51.816;8.662;2023-07-02T13:36:51;16.73;;;5.95;;
21168;SDS011;10742;51.816;8.662;2023-07-02T13:39:54;13.18;;;5.07;;
21168;SDS011;10742;51.816;8.662;2023-07-02T13:42:56;14.80;;;5.30;;
21168;SDS011;10742;51.816;8.662;2023-07-02T13:45:59;16.17;;;5.07;;
21168;SDS011;10742;51.816;8.662;2023-07-02T13:49:01;15.05;;;4.90;;
21168;SDS011;10742;51.816;8.662;2023-07-02T13:52:04;9.73;;;4.72;;
21168;SDS011;10742;51.816;8.662;2023-07-02T13:55:07;12.80;;;5.18;;
21168;SDS011;10742;51.816;8.662;2023-07-02T13:58:10;16.02;;;4.97;;
21168;SDS011;10742;51.816;8.662;2023-07-02T14:01:12;16.10;;;5.10;;
21168;SDS011;10742;51.816;8.662;2023-07-02T14:04:15;15.82;;;5.35;;
21168;SDS011;10742;51.816;8.662;2023-07-02T14:07:19;15.32;;;4.82;;
21168;SDS011;10742;51.816;8.662;2023-07-02T14:10:21;17.08;;;5.20;;
21168;SDS011;10742;51.816;8.662;2023-07-02T14:13:24;12.75;;;4.55;;
21168;SDS011;10742;51.816;8.662;2023-07-02T14:16:26;14.25;;;4.57;;
21168;SDS011;10742;51.816;8.662;2023-07-02T14:19:28;11.27;;;4.10;;
21168;SDS011;10742;51.816;8.662;2023-07-02T14:22:30;15.43;;;4.45;;
21168;SDS011;10742;51.816;8.662;2023-07-02T14:25:33;11.35;;;4.55;;
21168;SDS011;10742;51.816;8.662;2023-07-02T14:28:41;31.67;;;13.32;;
21168;SDS011;10742;51.816;8.662;2023-07-02T14:31:43;24.38;;;9.75;;
21168;SDS011;10742;51.816;8.662;2023-07-02T14:34:45;24.80;;;9.73;;
21168;SDS011;10742;51.816;8.662;2023-07-02T14:37:48;29.15;;;13.55;;
21168;SDS011;10742;51.816;8.662;2023-07-02T14:40:50;26.15;;;10.80;;
21168;SDS011;10742;51.816;8.662;2023-07-02T14:43:54;18.38;;;7.18;;
21168;SDS011;10742;51.816;8.662;2023-07-02T14:46:56;20.08;;;6.70;;
21168;SDS011;10742;51.816;8.662;2023-07-02T14:49:59;16.27;;;5.88;;
21168;SDS011;10742;51.816;8.662;2023-07-02T14:53:01;14.27;;;5.18;;
21168;SDS011;10742;51.816;8.662;2023-07-02T14:56:03;14.13;;;5.28;;
21168;SDS011;10742;51.816;8.662;2023-07-02T14:59:05;22.65;;;7.00;;
21168;SDS011;10742;51.816;8.662;2023-07-02T15:02:08;16.67;;;6.30;;
21168;SDS011;10742;51.816;8.662;2023-07-02T15:05:11;13.02;;;5.68;;
21168;SDS011;10742;51.816;8.662;2023-07-02T15:08:13;15.57;;;4.88;;
21168;SDS011;10742;51.816;8.662;2023-07-02T15:11:18;17.00;;;5.68;;
21168;SDS011;10742;51.816;8.662;2023-07-02T15:14:20;22.95;;;8.35;;
21168;SDS011;10742;51.816;8.662;2023-07-02T15:17:23;16.48;;;6.53;;
21168;SDS011;10742;51.816;8.662;2023-07-02T15:20:25;73.57;;;45.03;;
21168;SDS011;10742;51.816;8.662;2023-07-02T15:23:28;167.75;;;90.47;;
21168;SDS011;10742;51.816;8.662;2023-07-02T15:26:31;51.33;;;28.48;;
21168;SDS011;10742;51.816;8.662;2023-07-02T15:29:33;59.05;;;36.83;;
21168;SDS011;10742;51.816;8.662;2023-07-02T15:32:36;46.05;;;25.60;;
21168;SDS011;10742;51.816;8.662;2023-07-02T15:35:38;38.90;;;23.67;;
21168;SDS011;10742;51.816;8.662;2023-07-02T15:38:41;42.20;;;23.73;;
21168;SDS011;10742;51.816;8.662;2023-07-02T15:41:43;70.22;;;40.40;;
21168;SDS011;10742;51.816;8.662;2023-07-02T15:44:45;89.68;;;56.58;;
21168;SDS011;10742;51.816;8.662;2023-07-02T15:47:48;65.15;;;42.90;;
21168;SDS011;10742;51.816;8.662;2023-07-02T15:50:50;43.85;;;24.10;;
21168;SDS011;10742;51.816;8.662;2023-07-02T15:53:52;33.15;;;17.92;;
21168;SDS011;10742;51.816;8.662;2023-07-02T15:56:55;27.13;;;12.88;;
21168;SDS011;10742;51.816;8.662;2023-07-02T15:59:57;20.00;;;7.22;;
21168;SDS011;10742;51.816;8.662;2023-07-02T16:02:59;20.02;;;8.43;;
21168;SDS011;10742;51.816;8.662;2023-07-02T16:06:02;20.67;;;7.65;;
21168;SDS011;10742;51.816;8.662;2023-07-02T16:09:05;15.25;;;5.80;;
21168;SDS011;10742;51.816;8.662;2023-07-02T16:12:09;16.58;;;6.60;;
21168;SDS011;10742;51.816;8.662;2023-07-02T16:15:12;17.90;;;5.80;;
21168;SDS011;10742;51.816;8.662;2023-07-02T16:18:14;21.05;;;7.65;;
21168;SDS011;10742;51.816;8.662;2023-07-02T16:21:17;20.98;;;7.63;;
21168;SDS011;10742;51.816;8.662;2023-07-02T16:27:25;21.05;;;5.88;;
21168;SDS011;10742;51.816;8.662;2023-07-02T16:30:28;19.55;;;5.80;;
21168;SDS011;10742;51.816;8.662;2023-07-02T16:33:30;16.35;;;5.57;;
21168;SDS011;10742;51.816;8.662;2023-07-02T16:36:35;21.85;;;6.45;;
21168;SDS011;10742;51.816;8.662;2023-07-02T16:39:37;21.20;;;5.70;;
21168;SDS011;10742;51.816;8.662;2023-07-02T16:42:40;16.52;;;5.72;;
21168;SDS011;10742;51.816;8.662;2023-07-02T16:45:42;15.95;;;5.90;;
21168;SDS011;10742;51.816;8.662;2023-07-02T16:48:52;16.70;;;5.80;;
21168;SDS011;10742;51.816;8.662;2023-07-02T16:51:55;18.55;;;5.70;;
21168;SDS011;10742;51.816;8.662;2023-07-02T16:54:57;17.65;;;6.05;;
21168;SDS011;10742;51.816;8.662;2023-07-02T16:57:59;13.43;;;5.45;;
21168;SDS011;10742;51.816;8.662;2023-07-02T17:01:03;18.10;;;5.75;;
21168;SDS011;10742;51.816;8.662;2023-07-02T17:04:07;16.25;;;5.90;;
21168;SDS011;10742;51.816;8.662;2023-07-02T17:07:10;17.52;;;5.70;;
21168;SDS011;10742;51.816;8.662;2023-07-02T17:10:13;17.08;;;5.63;;
21168;SDS011;10742;51.816;8.662;2023-07-02T17:13:16;17.90;;;6.25;;
21168;SDS011;10742;51.816;8.662;2023-07-02T17:16:18;18.17;;;5.60;;
21168;SDS011;10742;51.816;8.662;2023-07-02T17:19:23;12.80;;;4.78;;
21168;SDS011;10742;51.816;8.662;2023-07-02T17:22:28;16.08;;;4.75;;
21168;SDS011;10742;51.816;8.662;2023-07-02T17:25:32;16.40;;;5.82;;
21168;SDS011;10742;51.816;8.662;2023-07-02T17:28:34;16.52;;;5.35;;
21168;SDS011;10742;51.816;8.662;2023-07-02T17:31:37;16.60;;;5.70;;
21168;SDS011;10742;51.816;8.662;2023-07-02T17:34:39;16.08;;;5.15;;
21168;SDS011;10742;51.816;8.662;2023-07-02T17:37:41;16.90;;;5.43;;
21168;SDS011;10742;51.816;8.662;2023-07-02T17:40:45;15.15;;;4.85;;
21168;SDS011;10742;51.816;8.662;2023-07-02T17:43:47;14.60;;;5.45;;
21168;SDS011;10742;51.816;8.662;2023-07-02T17:46:50;17.48;;;5.45;;
21168;SDS011;10742;51.816;8.662;2023-07-02T17:49:57;19.80;;;6.03;;
21168;SDS011;10742;51.816;8.662;2023-07-02T17:53:00;16.40;;;5.15;;